Time;durP1;ratioP1;P1;durP2;ratioP2;P2;SDS_P1;SDS_P2;PMS_P1;PMS_P2;Temp;Humidity;BMP_temperature;BMP_pressure;BME280_temperature;BME280_humidity;BME280_pressure;Samples;Min_cycle;Max_cycle;Signal;HPM_P1;HPM_P2
2022/05/27 00:01:21;;;;;;;24.83;4.82;;;16.00;99.90;;;;;;4942754;28;38355;-74
2022/05/27 00:03:48;;;;;;;28.65;4.75;;;16.00;99.90;;;;;;4943156;28;37506;-74
2022/05/27 00:06:14;;;;;;;34.53;5.22;;;16.00;99.90;;;;;;4942885;28;38670;-74
2022/05/27 00:08:40;;;;;;;23.05;4.47;;;16.00;99.90;;;;;;4943081;28;40187;-74
2022/05/27 00:11:07;;;;;;;28.50;5.20;;;16.00;99.90;;;;;;4944680;28;38365;-75
2022/05/27 00:13:34;;;;;;;20.73;4.45;;;16.00;99.90;;;;;;4941071;28;38914;-74
2022/05/27 00:16:00;;;;;;;31.38;5.47;;;16.00;99.90;;;;;;4942241;28;38938;-74
2022/05/27 00:18:26;;;;;;;22.67;5.00;;;16.00;99.90;;;;;;4936213;28;47637;-74
2022/05/27 00:20:53;;;;;;;21.77;5.25;;;16.00;99.90;;;;;;4936356;28;38036;-75
2022/05/27 00:23:20;;;;;;;34.35;5.05;;;16.00;99.90;;;;;;4940142;28;35801;-74
2022/05/27 00:25:46;;;;;;;23.55;4.43;;;16.00;99.90;;;;;;4944941;28;38786;-74
2022/05/27 00:28:13;;;;;;;20.30;4.30;;;16.10;99.90;;;;;;4945651;28;39584;-74
2022/05/27 00:30:39;;;;;;;21.35;4.35;;;16.10;99.90;;;;;;4946085;28;39285;-75
2022/05/27 00:33:05;;;;;;;27.27;4.80;;;16.10;99.90;;;;;;4936633;28;37488;-74
2022/05/27 00:35:32;;;;;;;21.92;3.72;;;16.10;99.90;;;;;;4957014;28;39819;-75
2022/05/27 00:37:58;;;;;;;17.92;4.28;;;16.10;99.90;;;;;;4936195;28;38952;-75
2022/05/27 00:40:26;;;;;;;18.77;3.38;;;16.00;99.90;;;;;;4936555;28;39370;-75
2022/05/27 00:42:52;;;;;;;16.85;4.03;;;16.10;99.90;;;;;;4936038;28;37068;-75
2022/05/27 00:45:24;;;;;;;22.15;4.65;;;16.10;99.90;;;;;;4933961;28;39157;-75
2022/05/27 00:47:53;;;;;;;20.95;4.65;;;16.00;99.90;;;;;;4935940;28;40276;-73
2022/05/27 00:50:25;;;;;;;18.35;4.45;;;16.10;99.90;;;;;;4935915;28;38423;-75
2022/05/27 00:52:53;;;;;;;21.00;3.55;;;16.00;99.90;;;;;;4930827;28;37764;-75
2022/05/27 00:55:27;;;;;;;22.80;4.53;;;16.10;99.90;;;;;;4936864;28;38983;-74
2022/05/27 00:58:00;;;;;;;32.58;5.20;;;16.10;99.90;;;;;;4939885;28;37642;-75
2022/05/27 01:00:26;;;;;;;17.20;4.47;;;16.00;99.90;;;;;;4952426;28;39245;-74
2022/05/27 01:02:55;;;;;;;23.23;4.60;;;16.00;99.90;;;;;;4931025;28;39088;-73
2022/05/27 01:05:23;;;;;;;24.42;4.15;;;16.00;99.90;;;;;;4950310;28;39724;-75
2022/05/27 01:08:08;;;;;;;18.92;4.10;;;15.90;99.90;;;;;;4943029;28;39375;-74
2022/05/27 01:10:49;;;;;;;28.90;4.13;;;15.80;99.90;;;;;;4942634;28;49082;-75
2022/05/27 01:13:25;;;;;;;24.83;4.40;;;15.90;99.90;;;;;;4936965;28;37907;-75
2022/05/27 01:15:57;;;;;;;26.30;4.32;;;15.80;99.90;;;;;;4932304;28;38355;-75
2022/05/27 01:21:41;;;;;;;24.75;4.30;;;15.80;99.90;;;;;;4939793;28;38829;-74
2022/05/27 01:24:28;;;;;;;27.27;4.50;;;15.80;99.90;;;;;;4941374;28;36815;-74
2022/05/27 01:27:24;;;;;;;22.88;4.38;;;15.90;99.90;;;;;;4942483;28;38940;-74
2022/05/27 01:30:12;;;;;;;18.95;4.50;;;15.90;99.90;;;;;;4939678;28;49184;-74
2022/05/27 01:33:02;;;;;;;18.83;3.38;;;15.90;99.90;;;;;;4936043;28;46974;-74
2022/05/27 01:35:39;;;;;;;21.58;4.03;;;15.80;99.90;;;;;;4941331;28;46265;-73
2022/05/27 01:38:19;;;;;;;20.10;4.70;;;15.90;99.90;;;;;;4955863;28;40747;-74
2022/05/27 01:40:54;;;;;;;17.92;3.70;;;15.80;99.90;;;;;;4942195;28;39602;-74
2022/05/27 01:43:26;;;;;;;18.55;3.35;;;15.80;99.90;;;;;;4942113;28;38505;-74
2022/05/27 01:46:08;;;;;;;16.20;3.55;;;15.80;99.90;;;;;;4956739;28;38363;-74
2022/05/27 01:49:01;;;;;;;19.58;3.72;;;15.80;99.90;;;;;;4955485;28;20127;-74
2022/05/27 01:51:44;;;;;;;24.77;4.57;;;15.80;99.90;;;;;;4931647;28;46979;-74
2022/05/27 01:54:22;;;;;;;20.67;5.32;;;15.70;99.90;;;;;;4954654;28;38570;-73
2022/05/27 01:57:01;;;;;;;19.73;4.57;;;15.70;99.90;;;;;;4954298;28;37518;-74
2022/05/27 01:59:47;;;;;;;16.40;4.13;;;15.60;99.90;;;;;;4939562;28;40716;-74
2022/05/27 02:02:19;;;;;;;22.50;4.07;;;15.60;99.90;;;;;;4937021;28;39211;-74
2022/05/27 02:04:48;;;;;;;;;;;15.60;99.90;;;;;;4949557;28;37607;-74
2022/05/27 02:07:26;;;;;;;25.92;5.25;;;15.50;99.90;;;;;;4951056;28;38099;-74
2022/05/27 02:09:58;;;;;;;26.75;5.57;;;15.60;99.90;;;;;;4944955;28;39032;-74
2022/05/27 02:12:36;;;;;;;20.35;4.47;;;15.50;99.90;;;;;;4952614;28;39759;-74
2022/05/27 02:15:10;;;;;;;18.65;4.50;;;15.50;99.90;;;;;;4953967;28;38595;-74
2022/05/27 02:17:42;;;;;;;14.00;3.80;;;15.50;99.90;;;;;;4953330;28;47165;-74
2022/05/27 02:20:22;;;;;;;22.35;4.45;;;15.50;99.90;;;;;;4940166;28;37876;-74
2022/05/27 02:22:56;;;;;;;15.63;3.88;;;15.50;99.90;;;;;;4941139;28;39173;-74
2022/05/27 02:25:27;;;;;;;13.93;3.92;;;15.50;99.90;;;;;;4939864;28;38532;-74
2022/05/27 02:27:59;;;;;;;20.40;3.78;;;15.50;99.90;;;;;;4941072;28;37848;-73
2022/05/27 02:30:29;;;;;;;18.48;4.22;;;15.50;99.90;;;;;;4935630;28;38933;-75
2022/05/27 02:36:00;;;;;;;17.13;3.80;;;15.50;99.90;;;;;;4938473;28;48550;-74
2022/05/27 02:38:27;;;;;;;20.77;3.83;;;15.50;99.90;;;;;;4942030;28;38002;-73
2022/05/27 02:40:58;;;;;;;20.30;3.78;;;15.50;99.90;;;;;;4940479;28;38641;-74
2022/05/27 02:43:28;;;;;;;10.88;3.13;;;15.50;99.90;;;;;;4937472;28;37250;-74
2022/05/27 02:46:26;;;;;;;16.45;3.78;;;15.50;99.90;;;;;;4939011;28;39842;-73
2022/05/27 02:49:04;;;;;;;17.88;3.33;;;15.50;99.90;;;;;;4939518;28;48479;-74
2022/05/27 02:51:56;;;;;;;14.25;3.67;;;15.40;99.90;;;;;;4941877;28;47134;-74
2022/05/27 02:55:10;;;;;;;10.80;3.15;;;15.40;99.90;;;;;;4942610;28;38403;-74
2022/05/27 02:57:45;;;;;;;13.20;3.17;;;15.40;99.90;;;;;;4925505;28;48740;-75
2022/05/27 03:00:24;;;;;;;16.88;3.45;;;15.30;99.90;;;;;;4960552;28;37933;-74
2022/05/27 03:02:51;;;;;;;15.80;3.45;;;15.30;99.90;;;;;;4943482;28;39322;-74
2022/05/27 03:05:21;;;;;;;13.18;4.20;;;15.30;99.90;;;;;;4948396;28;38949;-74
2022/05/27 03:07:51;;;;;;;12.77;3.45;;;15.40;99.90;;;;;;4943771;28;38596;-74
2022/05/27 03:10:41;;;;;;;12.60;3.50;;;15.40;99.90;;;;;;4940577;28;37996;-74
2022/05/27 03:13:25;;;;;;;11.63;3.08;;;15.40;99.90;;;;;;4959332;28;38277;-74
2022/05/27 03:16:02;;;;;;;9.38;3.78;;;15.40;99.90;;;;;;4962077;28;40676;-74
2022/05/27 03:18:55;;;;;;;10.00;3.22;;;15.40;99.90;;;;;;4948900;28;46908;-74
2022/05/27 03:21:47;;;;;;;16.73;4.18;;;15.40;99.90;;;;;;4948104;28;38795;-74
2022/05/27 03:24:25;;;;;;;11.38;3.60;;;15.40;99.90;;;;;;4941185;28;40633;-73
2022/05/27 03:26:56;;;;;;;12.40;4.13;;;15.40;99.90;;;;;;4961366;28;39723;-74
2022/05/27 03:30:00;;;;;;;14.85;3.85;;;15.40;99.90;;;;;;4959062;28;39251;-73
2022/05/27 03:32:49;;;;;;;10.75;4.60;;;15.50;99.90;;;;;;4943464;28;37655;-73
2022/05/27 03:35:47;;;;;;;13.48;3.75;;;15.50;99.90;;;;;;4947797;28;39002;-73
2022/05/27 03:38:32;;;;;;;9.80;3.78;;;15.40;99.90;;;;;;4946238;28;39036;-74
2022/05/27 03:41:02;;;;;;;9.63;3.65;;;15.50;99.90;;;;;;4949808;28;39040;-74
2022/05/27 03:43:30;;;;;;;9.45;3.72;;;15.50;99.90;;;;;;4943522;28;49712;-73
2022/05/27 03:45:58;;;;;;;11.18;3.05;;;15.40;99.90;;;;;;4953024;28;39710;-74
2022/05/27 03:48:27;;;;;;;10.02;3.67;;;15.40;99.90;;;;;;4946678;28;38815;-74
2022/05/27 03:50:57;;;;;;;10.68;2.97;;;15.40;99.90;;;;;;4952292;28;38524;-74
2022/05/27 03:54:03;;;;;;;7.07;2.13;;;15.40;99.90;;;;;;4963285;28;37623;-74
2022/05/27 03:56:12;;;;;;;5.72;2.05;;;15.40;99.90;;;;;;4942262;28;39404;-74
2022/05/27 03:58:38;;;;;;;9.07;2.40;;;15.40;99.90;;;;;;4933714;28;38740;-74
2022/05/27 04:01:04;;;;;;;7.38;2.35;;;15.40;99.90;;;;;;4931792;28;38896;-73
2022/05/27 04:03:30;;;;;;;8.27;2.03;;;15.40;99.90;;;;;;4944220;28;37894;-74
2022/05/27 04:05:57;;;;;;;6.43;1.75;;;15.30;99.90;;;;;;4942231;28;40355;-73
2022/05/27 04:08:23;;;;;;;6.18;1.40;;;15.30;99.90;;;;;;4933108;28;39576;-73
2022/05/27 04:10:49;;;;;;;7.20;1.75;;;15.30;99.90;;;;;;4945362;28;39279;-73
2022/05/27 04:13:15;;;;;;;5.85;2.08;;;15.30;99.90;;;;;;4932890;28;37567;-72
2022/05/27 04:15:41;;;;;;;5.78;1.58;;;15.30;99.90;;;;;;4953062;28;41513;-73
2022/05/27 04:18:08;;;;;;;8.15;2.33;;;15.30;99.90;;;;;;4938083;28;40878;-73
2022/05/27 04:20:34;;;;;;;11.45;2.45;;;15.40;99.90;;;;;;4939701;28;39634;-74
2022/05/27 04:23:00;;;;;;;9.27;2.53;;;15.30;99.90;;;;;;4935031;28;36434;-73
2022/05/27 04:25:26;;;;;;;11.38;2.88;;;15.30;99.90;;;;;;4931893;28;38644;-73
2022/05/27 04:27:53;;;;;;;8.57;2.83;;;15.40;99.90;;;;;;4928386;28;38616;-74
2022/05/27 04:30:20;;;;;;;9.25;2.72;;;15.40;99.90;;;;;;4931278;28;38665;-75
2022/05/27 04:32:46;;;;;;;9.05;2.38;;;15.50;99.90;;;;;;4934148;28;36109;-74
2022/05/27 04:35:12;;;;;;;8.25;2.40;;;15.40;99.90;;;;;;4955098;28;39153;-74
2022/05/27 04:37:38;;;;;;;9.60;2.85;;;15.50;99.90;;;;;;4934860;28;38706;-74
2022/05/27 04:40:05;;;;;;;6.53;2.33;;;15.60;99.90;;;;;;4931030;28;38429;-74
2022/05/27 04:42:31;;;;;;;11.82;2.92;;;15.60;99.90;;;;;;4940693;28;37121;-74
2022/05/27 04:44:57;;;;;;;8.02;2.40;;;15.60;99.90;;;;;;4956707;28;38499;-75
2022/05/27 04:47:23;;;;;;;8.60;2.25;;;15.60;99.90;;;;;;4937853;28;37991;-74
2022/05/27 04:49:56;;;;;;;9.75;2.45;;;15.60;99.90;;;;;;4944951;28;39388;-74
2022/05/27 04:52:25;;;;;;;12.23;2.88;;;15.60;99.90;;;;;;4945935;28;37989;-74
2022/05/27 04:54:52;;;;;;;11.15;2.33;;;15.60;99.90;;;;;;4961477;28;38951;-74
2022/05/27 04:57:26;;;;;;;8.00;2.45;;;15.60;99.90;;;;;;4944617;28;39029;-75
2022/05/27 04:59:53;;;;;;;6.15;2.05;;;15.50;99.90;;;;;;4949301;28;37568;-75
2022/05/27 05:02:24;;;;;;;10.20;2.33;;;15.50;99.90;;;;;;4948434;28;37611;-75
2022/05/27 05:04:51;;;;;;;7.90;2.10;;;15.50;99.90;;;;;;4947994;28;39551;-74
2022/05/27 05:07:21;;;;;;;10.68;2.92;;;15.60;99.90;;;;;;4950541;28;39028;-73
2022/05/27 05:09:47;;;;;;;9.23;1.98;;;15.60;99.90;;;;;;4950003;28;37571;-75
2022/05/27 05:12:14;;;;;;;13.93;2.50;;;15.60;99.90;;;;;;4952117;28;37799;-75
2022/05/27 05:14:41;;;;;;;10.27;2.45;;;15.60;99.90;;;;;;4943879;28;40083;-75
2022/05/27 05:17:07;;;;;;;7.30;2.40;;;15.50;99.90;;;;;;4948337;28;40300;-75
2022/05/27 05:19:35;;;;;;;6.72;2.13;;;15.40;99.90;;;;;;4954067;28;38301;-75
2022/05/27 05:22:01;;;;;;;16.50;2.80;;;15.40;99.90;;;;;;4947057;28;37760;-74
2022/05/27 05:24:27;;;;;;;9.43;2.30;;;15.50;99.90;;;;;;4959063;28;40088;-74
2022/05/27 05:26:53;;;;;;;7.85;2.42;;;15.40;99.90;;;;;;4964179;28;40366;-74
2022/05/27 05:29:19;;;;;;;8.23;2.28;;;15.50;99.90;;;;;;4944359;28;41339;-75
2022/05/27 05:31:45;;;;;;;8.45;2.20;;;15.60;99.90;;;;;;4952318;28;36788;-74
2022/05/27 05:34:12;;;;;;;7.70;2.10;;;16.00;99.90;;;;;;4967352;28;39933;-74
2022/05/27 05:36:38;;;;;;;8.15;2.20;;;16.30;99.90;;;;;;4952083;28;39756;-75
2022/05/27 05:39:04;;;;;;;8.20;2.28;;;16.50;99.90;;;;;;4946286;28;38194;-74
2022/05/27 05:41:37;;;;;;;9.75;2.17;;;16.60;99.90;;;;;;4958496;28;36839;-75
2022/05/27 05:44:05;;;;;;;9.35;2.47;;;16.70;99.90;;;;;;4955491;28;40679;-74
2022/05/27 05:46:34;;;;;;;6.13;2.17;;;16.70;99.90;;;;;;4944889;28;38610;-74
2022/05/27 05:49:00;;;;;;;6.88;2.00;;;16.50;99.90;;;;;;4935360;28;38986;-74
2022/05/27 05:51:27;;;;;;;8.98;2.42;;;16.30;99.90;;;;;;4947229;28;47386;-74
2022/05/27 05:53:54;;;;;;;6.15;2.70;;;16.10;99.90;;;;;;4970684;28;39091;-74
2022/05/27 05:56:21;;;;;;;8.85;2.97;;;16.10;99.90;;;;;;4946728;28;38583;-74
2022/05/27 05:58:50;;;;;;;8.85;2.97;;;15.90;99.90;;;;;;4950100;28;38298;-74
2022/05/27 06:01:17;;;;;;;7.82;3.22;;;15.80;99.90;;;;;;4931242;28;37545;-74
2022/05/27 06:03:43;;;;;;;7.53;3.05;;;15.80;99.90;;;;;;4947277;28;38712;-73
2022/05/27 06:06:09;;;;;;;7.90;3.22;;;15.70;99.90;;;;;;4948861;28;39324;-74
2022/05/27 06:08:36;;;;;;;9.90;3.17;;;15.70;99.90;;;;;;4961700;28;38531;-74
2022/05/27 06:11:02;;;;;;;14.07;3.75;;;15.70;99.90;;;;;;4962609;28;37577;-74
2022/05/27 06:13:31;;;;;;;8.27;2.90;;;15.70;99.90;;;;;;4946235;28;40633;-74
2022/05/27 06:15:57;;;;;;;10.10;4.03;;;15.80;99.90;;;;;;4948439;28;39132;-74
2022/05/27 06:18:23;;;;;;;9.77;3.00;;;15.80;99.90;;;;;;4946536;28;39184;-74
2022/05/27 06:20:50;;;;;;;8.80;3.05;;;15.80;99.90;;;;;;4951917;28;37621;-75
2022/05/27 06:23:16;;;;;;;9.10;3.45;;;15.80;99.90;;;;;;4931817;28;40104;-75
2022/05/27 06:25:42;;;;;;;8.63;3.17;;;15.80;99.90;;;;;;4943049;28;40217;-75
2022/05/27 06:36:41;;;;;;;11.52;2.90;;;16.20;99.90;;;;;;4936473;28;49600;-74
2022/05/27 06:39:08;;;;;;;10.82;2.90;;;16.10;99.90;;;;;;4921932;28;38398;-74
2022/05/27 06:41:34;;;;;;;12.75;2.67;;;16.00;99.90;;;;;;4926791;28;36956;-75
2022/05/27 06:44:02;;;;;;;12.98;2.53;;;15.70;99.90;;;;;;4927094;28;40294;-75
2022/05/27 06:46:29;;;;;;;14.75;2.67;;;15.70;99.90;;;;;;4944567;28;46454;-75
2022/05/27 06:48:55;;;;;;;10.10;2.70;;;15.80;99.90;;;;;;4945859;28;39125;-75
2022/05/27 06:51:22;;;;;;;7.40;2.40;;;15.70;99.90;;;;;;4960587;28;38343;-75
2022/05/27 06:53:48;;;;;;;10.98;2.55;;;15.80;99.90;;;;;;4943688;28;38815;-74
2022/05/27 06:56:15;;;;;;;8.40;2.20;;;15.90;99.90;;;;;;4946535;28;38496;-75
2022/05/27 06:58:42;;;;;;;9.13;2.28;;;16.00;99.90;;;;;;4925040;28;38301;-74
2022/05/27 07:01:10;;;;;;;6.93;2.10;;;16.00;99.90;;;;;;4925539;28;38152;-75
2022/05/27 07:03:37;;;;;;;9.80;2.13;;;16.10;99.90;;;;;;4937857;28;39417;-74
2022/05/27 07:06:05;;;;;;;8.00;2.50;;;16.10;99.90;;;;;;4946752;28;38160;-75
2022/05/27 07:08:32;;;;;;;5.55;1.90;;;16.00;99.90;;;;;;4946661;28;38886;-74
2022/05/27 07:10:58;;;;;;;7.82;2.20;;;16.00;99.90;;;;;;4946362;28;37250;-75
2022/05/27 07:13:24;;;;;;;7.53;1.77;;;16.00;99.90;;;;;;4944990;28;38806;-75
2022/05/27 07:15:50;;;;;;;10.20;2.00;;;16.30;99.90;;;;;;4945010;28;38387;-74
2022/05/27 07:18:16;;;;;;;7.20;2.40;;;16.60;99.90;;;;;;4945001;28;38845;-75
2022/05/27 07:20:43;;;;;;;9.43;2.05;;;16.60;99.90;;;;;;4946805;28;37340;-74
2022/05/27 07:23:09;;;;;;;12.50;3.25;;;16.60;99.90;;;;;;4943910;28;38949;-75
2022/05/27 07:25:36;;;;;;;11.98;2.25;;;16.50;99.90;;;;;;4959970;28;39434;-74
2022/05/27 07:28:06;;;;;;;6.85;2.45;;;16.30;99.90;;;;;;4944677;28;38478;-74
2022/05/27 07:30:33;;;;;;;9.27;2.33;;;16.20;99.90;;;;;;4942327;28;47284;-75
2022/05/27 07:32:59;;;;;;;15.65;3.05;;;16.30;99.90;;;;;;4947654;28;39490;-75
2022/05/27 07:35:26;;;;;;;13.60;2.35;;;16.20;99.90;;;;;;4945613;28;38725;-75
2022/05/27 07:37:52;;;;;;;8.70;2.15;;;16.10;99.90;;;;;;4941744;28;37456;-75
2022/05/27 07:40:18;;;;;;;10.13;2.03;;;16.00;99.90;;;;;;4941457;28;37389;-74
2022/05/27 07:42:44;;;;;;;7.28;1.92;;;16.10;99.90;;;;;;4946355;28;38978;-74
2022/05/27 07:45:12;;;;;;;7.15;2.13;;;16.30;99.90;;;;;;4947005;28;38631;-75
2022/05/27 07:47:38;;;;;;;10.70;2.60;;;16.40;99.90;;;;;;4924406;28;36518;-74
2022/05/27 07:50:07;;;;;;;9.45;2.40;;;16.50;99.90;;;;;;4955218;28;37532;-75
2022/05/27 07:52:34;;;;;;;9.35;2.13;;;16.60;99.90;;;;;;4943316;28;39284;-75
2022/05/27 07:55:01;;;;;;;8.98;2.40;;;16.80;99.90;;;;;;4942957;28;38433;-74
2022/05/27 07:57:28;;;;;;;9.23;2.85;;;17.10;99.90;;;;;;4945148;28;38654;-75
2022/05/27 07:59:54;;;;;;;9.30;2.40;;;17.10;99.90;;;;;;4946675;28;36504;-75
2022/05/27 08:02:22;;;;;;;13.57;3.30;;;17.10;99.90;;;;;;4958838;28;38858;-75
2022/05/27 08:04:48;;;;;;;7.53;2.28;;;17.20;99.90;;;;;;4940540;28;37927;-75
2022/05/27 08:07:14;;;;;;;10.95;2.40;;;17.30;99.90;;;;;;4942084;28;38736;-74
2022/05/27 08:09:40;;;;;;;14.75;2.95;;;17.00;99.90;;;;;;4959040;28;36226;-75
2022/05/27 08:12:07;;;;;;;10.13;2.08;;;16.70;99.90;;;;;;4936949;28;38662;-75
2022/05/27 08:14:33;;;;;;;11.70;2.20;;;16.90;99.90;;;;;;4943406;28;38382;-75
2022/05/27 08:17:00;;;;;;;10.70;2.40;;;17.20;99.90;;;;;;4942753;28;38810;-75
2022/05/27 08:19:26;;;;;;;15.30;2.50;;;17.30;99.90;;;;;;4956950;28;38269;-75
2022/05/27 08:21:52;;;;;;;12.10;2.60;;;17.60;99.90;;;;;;4944317;28;38301;-74
2022/05/27 08:24:18;;;;;;;9.40;2.10;;;17.70;99.90;;;;;;4923569;28;38597;-75
2022/05/27 08:26:46;;;;;;;9.63;1.90;;;18.00;99.90;;;;;;4950170;28;37377;-75
2022/05/27 08:29:14;;;;;;;10.00;2.70;;;18.20;99.90;;;;;;4941587;28;36207;-72
2022/05/27 08:31:40;;;;;;;12.90;2.78;;;17.80;99.90;;;;;;4940814;28;39405;-74
2022/05/27 08:39:42;;;;;;;11.93;3.42;;;17.10;99.90;;;;;;4941922;28;49643;-74
2022/05/27 08:42:36;;;;;;;10.32;2.58;;;16.90;99.90;;;;;;4939867;28;39763;-74
2022/05/27 08:45:13;;;;;;;13.35;2.67;;;16.60;99.90;;;;;;4953342;28;39576;-77
2022/05/27 08:47:45;;;;;;;9.60;2.42;;;16.50;99.90;;;;;;4942712;28;38553;-74
2022/05/27 08:50:22;;;;;;;17.25;3.17;;;16.90;99.90;;;;;;4943542;28;37131;-75
2022/05/27 08:52:53;;;;;;;12.18;2.70;;;16.90;99.90;;;;;;4940204;28;38525;-75
2022/05/27 09:01:36;;;;;;;10.23;2.78;;;17.00;99.90;;;;;;4943609;28;49448;-75
2022/05/27 09:04:15;;;;;;;12.95;2.88;;;17.30;99.90;;;;;;4949725;28;37786;-75
2022/05/27 09:06:49;;;;;;;10.27;2.60;;;17.30;99.90;;;;;;4943124;28;39001;-75
2022/05/27 09:09:27;;;;;;;12.75;2.53;;;16.90;99.90;;;;;;4944544;28;39867;-75
2022/05/27 09:12:08;;;;;;;13.10;3.22;;;17.20;99.90;;;;;;4944950;28;37165;-75
2022/05/27 09:14:36;;;;;;;10.93;3.10;;;17.80;99.90;;;;;;4959097;28;47278;-76
2022/05/27 09:17:11;;;;;;;13.70;2.80;;;18.50;99.90;;;;;;4946678;28;39100;-76
2022/05/27 09:19:46;;;;;;;15.77;2.65;;;18.70;99.90;;;;;;4947957;28;37974;-73
2022/05/27 09:22:47;;;;;;;9.55;2.70;;;18.70;99.90;;;;;;4945445;28;37142;-75
2022/05/27 09:25:44;;;;;;;9.60;2.60;;;18.60;99.90;;;;;;4943387;28;38616;-74
2022/05/27 09:28:31;;;;;;;9.88;2.70;;;17.70;99.90;;;;;;4946919;28;38813;-74
2022/05/27 09:30:59;;;;;;;13.18;2.75;;;17.50;99.90;;;;;;4959900;28;39368;-76
2022/05/27 09:33:28;;;;;;;10.45;2.90;;;17.10;99.90;;;;;;4959415;28;37323;-74
2022/05/27 09:36:18;;;;;;;7.88;2.15;;;16.80;99.90;;;;;;4955382;28;37669;-75
2022/05/27 09:38:52;;;;;;;9.77;2.78;;;16.70;99.90;;;;;;4953623;28;48604;-74
2022/05/27 09:42:15;;;;;;;9.20;2.45;;;17.10;99.90;;;;;;4954755;28;39069;-75
2022/05/27 09:44:49;;;;;;;11.10;2.97;;;17.30;99.90;;;;;;4916869;28;47867;-76
2022/05/27 09:47:17;;;;;;;10.43;2.60;;;17.40;99.90;;;;;;4909760;29;38172;-75
2022/05/27 09:49:46;;;;;;;8.65;2.05;;;17.70;99.90;;;;;;4946265;28;39206;-73
2022/05/27 09:52:12;;;;;;;9.82;2.80;;;17.70;99.90;;;;;;4963767;28;38820;-74
2022/05/27 09:54:59;;;;;;;10.35;2.15;;;17.60;99.90;;;;;;4960232;28;40853;-74
2022/05/27 09:57:28;;;;;;;10.98;2.53;;;17.70;99.90;;;;;;4959201;28;39775;-75
2022/05/27 09:59:57;;;;;;;12.82;2.50;;;17.90;99.90;;;;;;4948382;28;39278;-74
2022/05/27 10:02:26;;;;;;;11.55;2.42;;;17.70;99.90;;;;;;4945986;28;38263;-74
2022/05/27 10:05:14;;;;;;;11.40;2.53;;;17.50;99.90;;;;;;4947391;28;36988;-75
2022/05/27 10:07:57;;;;;;;7.88;1.90;;;17.90;99.90;;;;;;4956749;28;47785;-74
2022/05/27 10:10:29;;;;;;;11.10;2.78;;;17.90;99.90;;;;;;4947957;28;38521;-74
2022/05/27 10:13:16;;;;;;;10.77;2.60;;;18.20;99.90;;;;;;4955222;28;39237;-75
2022/05/27 10:15:43;;;;;;;12.38;2.55;;;18.70;99.90;;;;;;4963827;28;47359;-73
2022/05/27 10:18:19;;;;;;;9.23;2.70;;;18.70;99.90;;;;;;4948360;28;38896;-74
2022/05/27 10:21:02;;;;;;;8.45;2.53;;;18.20;99.90;;;;;;4953378;28;38358;-73
2022/05/27 10:23:33;;;;;;;9.07;2.47;;;18.30;99.90;;;;;;4954669;28;47401;-74
2022/05/27 10:26:17;;;;;;;14.43;3.38;;;18.30;99.90;;;;;;4949585;28;38054;-74
2022/05/27 10:28:43;;;;;;;13.48;3.13;;;18.20;99.90;;;;;;4953654;28;47287;-75
2022/05/27 10:31:16;;;;;;;15.20;3.40;;;17.90;99.90;;;;;;4958163;28;38856;-75
2022/05/27 10:33:47;;;;;;;14.68;3.47;;;17.40;99.90;;;;;;4954858;28;39635;-74
2022/05/27 10:36:34;;;;;;;12.80;3.17;;;17.30;99.90;;;;;;4950218;28;37830;-75
2022/05/27 10:39:14;;;;;;;17.20;3.33;;;17.20;99.90;;;;;;4957675;28;39625;-75
2022/05/27 10:41:49;;;;;;;18.27;3.70;;;17.30;99.90;;;;;;4956836;28;47373;-74
2022/05/27 10:44:34;;;;;;;12.70;3.42;;;16.90;99.90;;;;;;4946245;28;38285;-75
2022/05/27 10:47:00;;;;;;;12.40;3.17;;;16.50;99.90;;;;;;4953630;28;38936;-76
2022/05/27 10:49:54;;;;;;;12.65;3.38;;;16.40;99.90;;;;;;4963422;28;41410;-75
2022/05/27 10:52:52;;;;;;;10.18;3.20;;;16.50;99.90;;;;;;4953290;28;39037;-76
2022/05/27 10:55:34;;;;;;;11.50;2.63;;;16.50;99.90;;;;;;4957849;28;39920;-76
2022/05/27 11:04:08;;;;;;;13.75;3.03;;;17.20;99.90;;;;;;4944865;28;49468;-75
2022/05/27 11:06:57;;;;;;;11.80;2.80;;;17.60;99.90;;;;;;4950507;28;48632;-75
2022/05/27 11:09:35;;;;;;;12.82;2.92;;;17.90;99.90;;;;;;4960547;28;38320;-75
2022/05/27 11:12:11;;;;;;;16.58;3.50;;;18.00;99.90;;;;;;4948731;28;39656;-75
2022/05/27 11:15:11;;;;;;;8.43;2.10;;;18.00;99.90;;;;;;4955102;28;39288;-76
2022/05/27 11:17:46;;;;;;;11.38;2.72;;;18.40;99.90;;;;;;4946506;28;48478;-73
2022/05/27 11:20:39;;;;;;;7.20;1.85;;;18.50;99.90;;;;;;4956460;28;38026;-76
2022/05/27 11:23:33;;;;;;;13.68;2.55;;;18.40;99.90;;;;;;4951150;28;39512;-74
2022/05/27 11:26:10;;;;;;;13.38;2.92;;;18.10;99.90;;;;;;4956814;28;40783;-75
2022/05/27 11:29:15;;;;;;;15.23;3.00;;;18.10;99.90;;;;;;4937957;28;48003;-75
2022/05/27 11:32:25;;;;;;;14.05;2.50;;;18.70;99.90;;;;;;4923882;28;48306;-76
2022/05/27 11:35:25;;;;;;;9.82;2.35;;;18.60;99.90;;;;;;4883370;29;47319;-76
2022/05/27 11:38:00;;;;;;;14.52;3.08;;;18.10;99.90;;;;;;4960874;28;47253;-76
2022/05/27 11:40:38;;;;;;;11.85;2.88;;;18.10;99.90;;;;;;4959688;28;38066;-76
2022/05/27 11:43:33;;;;;;;12.52;3.42;;;17.40;99.90;;;;;;4950103;28;37273;-75
2022/05/27 11:46:17;;;;;;;13.73;3.00;;;17.20;99.90;;;;;;4963820;28;39720;-75
2022/05/27 11:49:14;;;;;;;11.98;2.50;;;17.10;99.90;;;;;;4963951;28;47495;-76
2022/05/27 11:52:05;;;;;;;11.50;2.10;;;17.40;99.90;;;;;;4951583;28;48725;-75
2022/05/27 11:54:51;;;;;;;10.20;2.65;;;17.90;99.90;;;;;;4949325;28;48159;-76
2022/05/27 11:57:28;;;;;;;13.35;2.38;;;18.40;99.90;;;;;;4945914;28;38674;-74
2022/05/27 12:00:10;;;;;;;11.60;3.20;;;18.50;99.90;;;;;;4949504;28;39294;-74
2022/05/27 12:03:14;;;;;;;12.45;2.88;;;18.90;99.90;;;;;;4938484;28;48487;-73
2022/05/27 12:05:53;;;;;;;8.70;2.40;;;18.60;99.90;;;;;;4948573;28;47308;-74
2022/05/27 12:08:38;;;;;;;8.57;2.17;;;18.70;99.90;;;;;;4948796;28;39166;-74
2022/05/27 12:11:11;;;;;;;11.02;2.35;;;18.60;99.90;;;;;;4947695;28;39574;-73
2022/05/27 12:13:52;;;;;;;19.20;4.00;;;18.50;99.90;;;;;;4964606;28;40333;-74
2022/05/27 12:16:27;;;;;;;13.00;2.88;;;18.50;99.90;;;;;;4943683;28;37485;-75
2022/05/27 12:19:08;;;;;;;8.10;2.13;;;18.30;99.90;;;;;;4947765;28;38718;-75
2022/05/27 12:21:40;;;;;;;11.45;2.30;;;18.20;99.90;;;;;;4947908;28;48357;-78
2022/05/27 12:24:21;;;;;;;16.33;2.80;;;18.70;99.90;;;;;;4946230;28;38449;-74
2022/05/27 12:26:51;;;;;;;8.82;2.20;;;18.70;99.90;;;;;;4946153;28;37291;-75
2022/05/27 12:29:18;;;;;;;9.43;2.40;;;19.10;99.90;;;;;;4945492;28;39182;-74
2022/05/27 12:31:45;;;;;;;11.90;2.53;;;19.30;99.90;;;;;;4945099;28;38410;-74
2022/05/27 12:34:39;;;;;;;10.45;2.58;;;19.10;99.90;;;;;;4950715;28;38139;-73
2022/05/27 12:37:25;;;;;;;18.80;3.50;;;17.90;99.90;;;;;;4944676;28;37617;-75
2022/05/27 12:40:20;;;;;;;12.40;2.45;;;17.80;99.90;;;;;;4951007;28;37838;-75
2022/05/27 12:42:54;;;;;;;12.32;2.75;;;18.30;99.90;;;;;;4958570;28;46597;-75
2022/05/27 12:45:26;;;;;;;16.25;2.63;;;18.10;99.90;;;;;;4947428;28;38461;-74
2022/05/27 12:47:54;;;;;;;11.82;2.72;;;17.60;99.90;;;;;;4947144;28;37476;-75
2022/05/27 12:50:31;;;;;;;10.15;2.08;;;17.70;99.90;;;;;;4954909;28;39893;-74
2022/05/27 12:53:13;;;;;;;11.27;2.30;;;17.80;99.90;;;;;;4959051;28;39590;-79
2022/05/27 13:01:30;;;;;;;11.25;2.97;;;18.10;99.90;;;;;;4948818;28;39302;-75
2022/05/27 13:03:59;;;;;;;9.60;2.17;;;18.40;99.90;;;;;;4944932;28;39522;-78
2022/05/27 13:06:25;;;;;;;11.68;2.83;;;18.60;99.90;;;;;;4953644;28;39458;-73
2022/05/27 13:09:03;;;;;;;9.45;2.47;;;18.60;99.90;;;;;;4955312;28;37096;-73
2022/05/27 13:11:35;;;;;;;9.13;2.60;;;18.90;99.90;;;;;;4951383;28;50119;-73
2022/05/27 13:14:04;;;;;;;8.45;2.10;;;18.70;99.90;;;;;;4962618;28;37890;-73
2022/05/27 13:17:10;;;;;;;10.00;1.73;;;18.30;99.90;;;;;;4947403;28;50341;-73
2022/05/27 13:19:44;;;;;;;12.35;2.33;;;18.30;99.90;;;;;;4950547;28;47239;-73
2022/05/27 13:22:15;;;;;;;9.35;2.20;;;18.30;99.90;;;;;;4955249;28;38581;-73
2022/05/27 13:24:44;;;;;;;9.85;2.55;;;18.20;99.90;;;;;;4942132;28;37652;-74
2022/05/27 13:27:32;;;;;;;12.27;2.28;;;17.80;99.90;;;;;;4949095;28;38199;-74
2022/05/27 13:30:09;;;;;;;9.30;2.35;;;17.90;99.90;;;;;;4956274;28;36383;-75
2022/05/27 13:33:01;;;;;;;11.18;2.53;;;18.00;99.90;;;;;;4949198;28;47178;-74
2022/05/27 13:35:36;;;;;;;8.82;1.83;;;18.20;99.90;;;;;;4950414;28;40704;-76
2022/05/27 13:38:04;;;;;;;10.15;2.50;;;18.20;99.90;;;;;;4963759;28;38840;-75
2022/05/27 13:40:33;;;;;;;6.38;2.42;;;18.00;99.90;;;;;;4961199;28;37274;-75
2022/05/27 13:43:06;;;;;;;9.95;2.20;;;18.20;99.90;;;;;;4948191;28;38683;-78
2022/05/27 13:45:55;;;;;;;;;;;18.30;99.90;;;;;;4968378;28;47528;-76
2022/05/27 13:48:31;;;;;;;10.48;2.35;;;18.00;99.90;;;;;;4938953;28;38110;-80
2022/05/27 13:51:10;;;;;;;7.97;2.28;;;18.30;99.90;;;;;;4953088;28;37501;-76
2022/05/27 13:53:37;;;;;;;6.93;1.60;;;18.20;99.90;;;;;;4946461;28;47369;-75